createdAt,value
2023-10-02T00:00:09.443Z,86979.22
2023-10-02T00:01:53.583Z,86981.81
2023-10-02T00:03:31.016Z,86982.25
2023-10-02T00:05:09.065Z,86975.59
2023-10-02T00:06:45.763Z,86981.59
2023-10-02T00:08:34.003Z,86977.66
2023-10-02T00:10:10.652Z,86977.00
2023-10-02T00:11:47.857Z,86982.34
2023-10-02T00:13:23.539Z,86987.03
2023-10-02T00:15:14.659Z,86975.78
2023-10-02T00:17:02.411Z,86969.88
2023-10-02T00:18:39.113Z,86976.34
2023-10-02T00:20:24.164Z,86976.16
2023-10-02T00:22:10.525Z,86976.94
2023-10-02T00:24:01.608Z,86975.84
2023-10-02T00:25:54.006Z,86970.34
2023-10-02T00:27:33.109Z,86970.09
2023-10-02T00:29:12.013Z,86972.97
2023-10-02T00:30:47.841Z,86970.34
2023-10-02T00:32:24.060Z,86969.78
2023-10-02T00:33:59.982Z,86971.19
2023-10-02T00:35:52.736Z,86969.25
2023-10-02T00:37:48.641Z,86968.91
2023-10-02T00:39:32.718Z,86969.50
2023-10-02T00:41:10.420Z,86976.53
2023-10-02T00:42:47.628Z,86969.19
2023-10-02T00:44:24.623Z,86968.31
2023-10-02T00:46:01.500Z,86973.59
2023-10-02T00:47:40.868Z,86978.63
2023-10-02T00:49:30.370Z,86973.38
2023-10-02T00:51:13.434Z,86972.22
2023-10-02T00:53:05.854Z,86974.13
2023-10-02T00:54:41.782Z,86967.53
2023-10-02T00:56:22.906Z,86965.28
2023-10-02T00:58:00.339Z,86967.72
2023-10-02T00:59:40.034Z,86974.00
2023-10-02T01:01:16.645Z,86969.56
2023-10-02T01:03:00.030Z,86977.88
2023-10-02T01:04:38.711Z,86973.97
2023-10-02T01:06:14.686Z,86971.47
2023-10-02T01:07:56.616Z,86980.31
2023-10-02T01:09:36.189Z,86982.75
2023-10-02T01:11:16.032Z,86972.91
2023-10-02T01:12:55.186Z,86975.44
2023-10-02T01:14:50.684Z,86984.00
2023-10-02T01:16:26.792Z,86990.00
2023-10-02T01:18:29.437Z,86982.94
2023-10-02T01:20:11.989Z,86984.69
2023-10-02T01:21:49.384Z,86994.72
2023-10-02T01:23:30.335Z,86996.00
2023-10-02T01:25:17.479Z,86993.63
2023-10-02T01:26:56.967Z,86995.41
2023-10-02T01:28:53.201Z,86995.69
2023-10-02T01:30:29.548Z,86997.56
2023-10-02T01:32:09.726Z,87005.38
2023-10-02T01:33:47.154Z,87001.00
2023-10-02T01:35:24.519Z,87010.41
2023-10-02T01:37:23.715Z,87009.16
2023-10-02T01:39:18.311Z,87013.25
2023-10-02T01:41:13.375Z,87015.28
2023-10-02T01:42:49.817Z,87022.75
2023-10-02T01:44:26.429Z,87029.72
2023-10-02T01:46:02.712Z,87027.63
2023-10-02T01:47:43.571Z,87029.66
2023-10-02T01:49:29.939Z,87034.41
2023-10-02T01:51:29.699Z,87040.25
2023-10-02T01:53:08.323Z,87036.53
2023-10-02T01:54:46.849Z,87039.69
2023-10-02T01:56:24.918Z,87040.59
2023-10-02T01:58:19.012Z,87040.81
2023-10-02T02:00:15.131Z,87039.91
2023-10-02T02:02:00.259Z,87040.03
2023-10-02T02:03:36.900Z,87036.97
2023-10-02T02:05:16.812Z,87037.41
2023-10-02T02:06:54.919Z,87041.34
2023-10-02T02:08:37.236Z,87041.28
2023-10-02T02:10:12.981Z,87041.06
2023-10-02T02:12:07.898Z,87034.09
2023-10-02T02:13:54.352Z,87038.06
2023-10-02T02:15:31.095Z,87047.25
2023-10-02T02:17:13.876Z,87052.19
2023-10-02T02:18:52.976Z,87057.22
2023-10-02T02:20:46.174Z,87054.94
2023-10-02T02:22:34.806Z,87049.56
2023-10-02T02:24:10.834Z,87050.50
2023-10-02T02:25:46.790Z,87049.72
2023-10-02T02:27:23.951Z,87054.97
2023-10-02T02:29:00.485Z,87059.44
2023-10-02T02:30:42.789Z,87067.53
2023-10-02T02:32:21.646Z,87060.41
2023-10-02T02:34:02.167Z,87059.41
2023-10-02T02:35:41.121Z,87059.00
2023-10-02T02:37:18.848Z,87065.72
2023-10-02T02:39:18.854Z,87062.19
2023-10-02T02:41:07.416Z,87059.47
2023-10-02T02:42:43.714Z,87064.25
2023-10-02T02:44:37.992Z,87063.25
2023-10-02T02:46:19.276Z,87063.41
2023-10-02T02:47:56.691Z,87067.25
2023-10-02T02:49:34.448Z,87077.22
2023-10-02T02:51:17.174Z,87066.88
2023-10-02T02:53:12.860Z,87073.19
2023-10-02T02:55:01.510Z,87081.41
2023-10-02T02:56:37.946Z,87082.56
2023-10-02T02:58:14.278Z,87076.09
2023-10-02T02:59:50.144Z,87088.19
2023-10-02T03:01:26.754Z,87081.38
2023-10-02T03:03:04.640Z,87090.09
2023-10-02T03:04:40.946Z,87092.38
2023-10-02T03:06:19.297Z,87091.06
2023-10-02T03:07:58.527Z,87091.81
2023-10-02T03:09:36.849Z,87092.00
2023-10-02T03:11:13.340Z,87099.31
2023-10-02T03:12:49.987Z,87096.88
2023-10-02T03:14:26.906Z,87102.88
2023-10-02T03:16:10.935Z,87101.28
2023-10-02T03:17:47.964Z,87105.06
2023-10-02T03:19:24.486Z,87105.03
2023-10-02T03:21:16.493Z,87112.03
2023-10-02T03:22:58.099Z,87109.09
2023-10-02T03:24:35.724Z,87113.81
2023-10-02T03:26:29.419Z,87110.66
2023-10-02T03:28:06.013Z,87104.25
2023-10-02T03:29:42.914Z,87118.44
2023-10-02T03:31:37.130Z,87110.88
2023-10-02T03:33:36.106Z,87120.91
2023-10-02T03:35:14.424Z,87121.59
2023-10-02T03:36:51.616Z,87120.56
2023-10-02T03:38:28.387Z,87114.78
2023-10-02T03:40:16.004Z,87109.59
2023-10-02T03:41:57.970Z,87116.88
2023-10-02T03:43:37.367Z,87114.53
2023-10-02T03:45:14.790Z,87115.63
2023-10-02T03:46:53.211Z,87123.72
2023-10-02T03:48:30.929Z,87119.25
2023-10-02T03:50:12.453Z,87116.41
2023-10-02T03:51:51.075Z,87127.00
2023-10-02T03:53:33.026Z,87126.69
2023-10-02T03:55:20.249Z,87124.88
2023-10-02T03:56:57.332Z,87125.16
2023-10-02T03:58:40.807Z,87133.09
2023-10-02T04:00:24.177Z,87127.16
2023-10-02T04:02:21.506Z,87129.78
2023-10-02T04:04:21.341Z,87134.16
2023-10-02T04:05:57.684Z,87134.31
2023-10-02T04:07:33.616Z,87136.69
2023-10-02T04:09:29.729Z,87137.28
2023-10-02T04:11:06.062Z,87139.16
2023-10-02T04:12:52.641Z,87139.25
2023-10-02T04:14:34.697Z,87134.50
2023-10-02T04:16:28.809Z,87139.38
2023-10-02T04:18:06.964Z,87137.38
2023-10-02T04:19:54.557Z,87145.84
2023-10-02T04:21:35.685Z,87138.47
2023-10-02T04:23:23.205Z,87144.44
2023-10-02T04:25:09.143Z,87138.44
2023-10-02T04:26:46.698Z,87137.00
2023-10-02T04:28:29.565Z,87142.69
2023-10-02T04:30:14.590Z,87137.06
2023-10-02T04:32:10.797Z,87143.13
2023-10-02T04:33:54.174Z,87146.38
2023-10-02T04:35:54.612Z,87159.28
2023-10-02T04:37:33.978Z,87152.78
2023-10-02T04:39:32.900Z,87151.19
2023-10-02T04:41:28.193Z,87156.84
2023-10-02T04:43:24.330Z,87147.38
2023-10-02T04:45:00.218Z,87155.22
2023-10-02T04:46:36.824Z,87160.00
2023-10-02T04:48:13.701Z,87162.63
2023-10-02T04:50:06.759Z,87174.75
2023-10-02T04:51:48.747Z,87168.00
2023-10-02T04:53:26.294Z,87171.88
2023-10-02T04:55:09.158Z,87177.78
2023-10-02T04:56:48.685Z,87181.16
2023-10-02T04:58:29.518Z,87182.34
2023-10-02T05:00:21.983Z,87172.78
2023-10-02T05:02:17.892Z,87177.44
2023-10-02T05:03:57.618Z,87186.28
2023-10-02T05:05:36.625Z,87192.06
2023-10-02T05:07:17.340Z,87204.06
2023-10-02T05:08:55.850Z,87202.06
2023-10-02T05:10:31.850Z,87199.75
2023-10-02T05:12:08.559Z,87193.91
2023-10-02T05:13:55.917Z,87197.72
2023-10-02T05:15:31.876Z,87206.50
2023-10-02T05:17:20.432Z,87209.25
2023-10-02T05:18:57.100Z,87210.34
2023-10-02T05:20:40.421Z,87214.56
2023-10-02T05:22:18.188Z,87214.72
2023-10-02T05:24:03.121Z,87222.81
2023-10-02T05:25:39.260Z,87231.75
2023-10-02T05:27:29.540Z,87231.03
2023-10-02T05:29:10.761Z,87224.44
2023-10-02T05:30:47.163Z,87233.16
2023-10-02T05:32:25.399Z,87240.88
2023-10-02T05:34:03.094Z,87241.78
2023-10-02T05:35:47.340Z,87245.81
2023-10-02T05:37:25.263Z,87243.38
2023-10-02T05:39:18.629Z,87246.50
2023-10-02T05:41:00.918Z,87255.31
2023-10-02T05:42:39.391Z,87254.81
2023-10-02T05:44:25.193Z,87250.00
2023-10-02T05:46:09.121Z,87256.72
2023-10-02T05:47:50.860Z,87257.53
2023-10-02T05:49:28.518Z,87258.56
2023-10-02T05:51:14.956Z,87252.22
2023-10-02T05:52:50.958Z,87252.59
2023-10-02T05:54:28.357Z,87256.84
2023-10-02T05:56:12.923Z,87249.94
2023-10-02T05:57:49.319Z,87262.09
2023-10-02T05:59:27.527Z,87262.47
2023-10-02T06:01:06.211Z,87256.25
2023-10-02T06:03:00.953Z,87256.34
2023-10-02T06:04:38.310Z,87258.47
2023-10-02T06:06:23.420Z,87266.16
2023-10-02T06:08:01.821Z,87257.53
2023-10-02T06:09:48.017Z,87259.38
2023-10-02T06:11:28.534Z,87259.59
2023-10-02T06:13:08.214Z,87259.31
2023-10-02T06:14:45.926Z,87260.31
2023-10-02T06:16:25.587Z,87260.16
2023-10-02T06:18:03.823Z,87258.47
2023-10-02T06:19:46.860Z,87263.47
2023-10-02T06:21:24.006Z,87265.44
2023-10-02T06:23:08.196Z,87257.03
2023-10-02T06:24:45.064Z,87263.41
2023-10-02T06:26:21.412Z,87264.16
2023-10-02T06:28:18.029Z,87262.31
2023-10-02T06:29:55.012Z,87264.22
2023-10-02T06:31:43.930Z,87271.84
2023-10-02T06:33:23.755Z,87266.38
2023-10-02T06:35:02.481Z,87265.41
2023-10-02T06:36:47.981Z,87269.38
2023-10-02T06:38:24.011Z,87272.75
2023-10-02T06:40:16.339Z,87272.28
2023-10-02T06:41:54.278Z,87274.75
2023-10-02T06:43:34.912Z,87277.06
2023-10-02T06:45:17.726Z,87279.03
2023-10-02T06:46:58.157Z,87282.97
2023-10-02T06:48:41.228Z,87287.88
2023-10-02T06:50:25.779Z,87283.84
2023-10-02T06:52:14.367Z,87290.50
2023-10-02T06:53:50.066Z,87292.00
2023-10-02T06:55:29.511Z,87288.38
2023-10-02T06:57:13.667Z,87280.28
2023-10-02T06:58:54.611Z,87294.16
2023-10-02T07:00:49.870Z,87283.00
2023-10-02T07:02:29.857Z,87289.84
2023-10-02T07:04:11.568Z,87290.91
2023-10-02T07:05:50.167Z,87288.41
2023-10-02T07:07:32.286Z,87287.22
2023-10-02T07:09:15.878Z,87292.00
2023-10-02T07:10:52.524Z,87289.25
2023-10-02T07:12:30.072Z,87290.72
2023-10-02T07:14:08.751Z,87288.22
2023-10-02T07:15:45.181Z,87289.13
2023-10-02T07:17:21.066Z,87286.84
2023-10-02T07:19:00.510Z,87286.38
2023-10-02T07:20:44.764Z,87293.28
2023-10-02T07:22:25.978Z,87296.34
2023-10-02T07:24:05.085Z,87294.50
2023-10-02T07:25:43.649Z,87291.56
2023-10-02T07:27:26.324Z,87294.25
2023-10-02T07:29:02.814Z,87286.38
2023-10-02T07:30:39.499Z,87298.78
2023-10-02T07:32:15.687Z,87298.97
2023-10-02T07:33:57.808Z,87296.88
2023-10-02T07:35:36.403Z,87301.81
2023-10-02T07:37:15.533Z,87300.88
2023-10-02T07:38:51.453Z,87300.06
2023-10-02T07:40:48.748Z,87296.78
2023-10-02T07:42:33.458Z,87296.25
2023-10-02T07:44:12.757Z,87300.59
2023-10-02T07:46:16.691Z,87293.56
2023-10-02T07:48:12.880Z,87297.97
2023-10-02T07:49:57.418Z,87297.63
2023-10-02T07:51:40.646Z,87295.31
2023-10-02T07:53:16.625Z,87301.81
2023-10-02T07:54:52.775Z,87296.19
2023-10-02T07:56:31.102Z,87301.16
2023-10-02T07:58:07.351Z,87304.00
2023-10-02T07:59:45.783Z,87299.19
2023-10-02T08:01:24.003Z,87294.78
2023-10-02T08:03:04.495Z,87297.31
2023-10-02T08:04:49.802Z,87293.91
2023-10-02T08:06:35.603Z,87290.34
2023-10-02T08:08:12.360Z,87296.34
2023-10-02T08:09:54.407Z,87302.00
2023-10-02T08:11:30.119Z,87294.25
2023-10-02T08:13:07.916Z,87298.72
2023-10-02T08:14:49.079Z,87294.22
2023-10-02T08:16:25.495Z,87293.00
2023-10-02T08:18:01.315Z,87296.84
2023-10-02T08:19:40.588Z,87288.31
2023-10-02T08:21:16.372Z,87295.47
2023-10-02T08:22:56.901Z,87293.38
2023-10-02T08:24:32.809Z,87292.38
2023-10-02T08:26:25.771Z,87291.97
2023-10-02T08:28:03.278Z,87294.84
2023-10-02T08:29:40.267Z,87296.28
2023-10-02T08:31:16.481Z,87293.75
2023-10-02T08:32:55.231Z,87288.72
2023-10-02T08:34:31.617Z,87294.50
2023-10-02T08:36:11.716Z,87292.91
2023-10-02T08:37:47.869Z,87290.09
2023-10-02T08:39:25.043Z,87295.38
2023-10-02T08:41:09.067Z,87304.25
2023-10-02T08:42:48.887Z,87300.59
2023-10-02T08:44:24.706Z,87303.41
2023-10-02T08:46:02.556Z,87307.13
2023-10-02T08:47:40.358Z,87302.97
2023-10-02T08:49:18.650Z,87294.72
2023-10-02T08:51:00.893Z,87298.06
2023-10-02T08:52:49.665Z,87299.94
2023-10-02T08:54:29.603Z,87288.00
2023-10-02T08:56:26.083Z,87297.81
2023-10-02T08:58:21.099Z,87291.84
2023-10-02T09:00:19.002Z,87291.41
2023-10-02T09:02:18.767Z,87287.81
2023-10-02T09:04:13.414Z,87296.56
2023-10-02T09:05:52.245Z,87291.16
2023-10-02T09:07:48.256Z,87290.75
2023-10-02T09:09:28.203Z,87282.44
2023-10-02T09:11:08.737Z,87280.94
2023-10-02T09:12:54.036Z,87285.31
2023-10-02T09:14:33.633Z,87282.13
2023-10-02T09:16:16.439Z,87273.19
2023-10-02T09:17:52.682Z,87277.69
2023-10-02T09:19:32.472Z,87276.06
2023-10-02T09:21:17.871Z,87269.69
2023-10-02T09:23:10.083Z,87269.38
2023-10-02T09:25:07.575Z,87264.09
2023-10-02T09:26:45.460Z,87261.53
2023-10-02T09:28:43.745Z,87261.19
2023-10-02T09:30:23.740Z,87257.22
2023-10-02T09:32:06.106Z,87247.78
2023-10-02T09:33:53.802Z,87249.66
2023-10-02T09:36:15.018Z,87247.31
2023-10-02T09:38:05.898Z,87238.47
2023-10-02T09:39:43.772Z,87240.81
2023-10-02T09:41:22.272Z,87232.72
2023-10-02T09:43:13.071Z,87227.13
2023-10-02T09:44:53.428Z,87232.22
2023-10-02T09:46:33.993Z,87227.06
2023-10-02T09:48:29.801Z,87218.47
2023-10-02T09:50:25.880Z,87213.25
2023-10-02T09:52:16.961Z,87208.25
2023-10-02T09:54:19.780Z,87208.81
2023-10-02T09:56:17.129Z,87194.00
2023-10-02T09:57:56.944Z,87202.03
2023-10-02T09:59:56.996Z,87200.78
2023-10-02T10:01:36.593Z,87192.84
2023-10-02T10:03:26.984Z,87193.16
2023-10-02T10:05:14.333Z,87185.50
2023-10-02T10:07:08.986Z,87191.56
2023-10-02T10:09:15.780Z,87192.97
2023-10-02T10:10:54.416Z,87182.09
2023-10-02T10:12:57.136Z,87175.47
2023-10-02T10:14:40.146Z,87174.34
2023-10-02T10:16:22.806Z,87168.50
2023-10-02T10:17:59.285Z,87167.88
2023-10-02T10:19:35.611Z,87167.53
2023-10-02T10:22:02.341Z,87167.31
2023-10-02T10:23:38.774Z,87158.88
2023-10-02T10:25:23.572Z,87152.88
2023-10-02T10:27:00.082Z,87150.22
2023-10-02T10:28:53.091Z,87148.03
2023-10-02T10:30:30.400Z,87134.13
2023-10-02T10:32:26.454Z,87138.88
2023-10-02T10:34:03.247Z,87132.66
2023-10-02T10:35:54.058Z,87131.19
2023-10-02T10:37:49.774Z,87138.25
2023-10-02T10:39:56.860Z,87138.44
2023-10-02T10:41:38.041Z,87141.84
2023-10-02T10:43:16.057Z,87132.38
2023-10-02T10:44:59.191Z,87121.56
2023-10-02T10:46:39.249Z,87124.47
2023-10-02T10:48:25.119Z,87117.50
2023-10-02T10:50:30.161Z,87114.03
2023-10-02T10:52:26.297Z,87109.91
2023-10-02T10:54:45.973Z,87111.97
2023-10-02T10:56:30.080Z,87104.94
2023-10-02T10:58:12.387Z,87113.41
2023-10-02T10:59:49.154Z,87104.34
2023-10-02T11:01:25.791Z,87098.13
2023-10-02T11:03:22.149Z,87102.38
2023-10-02T11:04:58.614Z,87089.19
2023-10-02T11:06:46.696Z,87089.31
2023-10-02T11:08:30.769Z,87088.56
2023-10-02T11:10:22.657Z,87077.56
2023-10-02T11:11:58.425Z,87077.56
2023-10-02T11:14:00.707Z,87076.88
2023-10-02T11:15:49.275Z,87066.53
2023-10-02T11:17:35.045Z,87065.16
2023-10-02T11:19:23.953Z,87070.66
2023-10-02T11:21:00.300Z,87067.22
2023-10-02T11:22:54.094Z,87062.97
2023-10-02T11:24:31.038Z,87067.81
2023-10-02T11:26:16.002Z,87060.22
2023-10-02T11:28:01.252Z,87063.72
2023-10-02T11:29:43.352Z,87062.34
2023-10-02T11:31:47.701Z,87059.56
2023-10-02T11:33:30.786Z,87052.56
2023-10-02T11:35:09.624Z,87048.56
2023-10-02T11:36:57.684Z,87038.94
2023-10-02T11:38:33.846Z,87045.03
2023-10-02T11:40:10.590Z,87047.81
2023-10-02T11:41:48.779Z,87050.69
2023-10-02T11:43:24.822Z,87048.47
2023-10-02T11:45:00.791Z,87045.75
2023-10-02T11:46:37.211Z,87043.03
2023-10-02T11:48:14.813Z,87036.59
2023-10-02T11:49:50.555Z,87044.34
2023-10-02T11:51:33.031Z,87040.28
2023-10-02T11:53:09.072Z,87042.91
2023-10-02T11:54:45.528Z,87041.44
2023-10-02T11:56:22.652Z,87044.28
2023-10-02T11:57:58.574Z,87034.47
2023-10-02T11:59:34.749Z,87027.31
2023-10-02T12:01:11.028Z,87025.72
2023-10-02T12:02:48.605Z,87018.97
2023-10-02T12:04:24.487Z,87020.84
2023-10-02T12:06:00.514Z,87023.50
2023-10-02T12:07:36.822Z,87025.88
2023-10-02T12:09:19.863Z,87014.66
2023-10-02T12:10:58.592Z,87009.72
2023-10-02T12:12:34.876Z,87018.00
2023-10-02T12:14:11.168Z,87015.34
2023-10-02T12:15:51.998Z,87023.59
2023-10-02T12:17:27.980Z,87008.97
2023-10-02T12:19:04.092Z,87005.63
2023-10-02T12:20:44.866Z,87003.56
2023-10-02T12:22:21.389Z,87013.34
2023-10-02T12:24:00.969Z,87004.63
2023-10-02T12:25:38.516Z,86996.25
2023-10-02T12:27:17.481Z,86990.22
2023-10-02T12:28:53.342Z,86989.97
2023-10-02T12:30:30.858Z,86983.50
2023-10-02T12:32:07.888Z,86985.13
2023-10-02T12:33:45.408Z,86994.00
2023-10-02T12:35:21.318Z,86992.06
2023-10-02T12:36:57.301Z,86987.00
2023-10-02T12:38:33.629Z,86987.38
2023-10-02T12:40:20.541Z,86983.00
2023-10-02T12:41:56.454Z,86984.41
2023-10-02T12:43:32.681Z,86979.56
2023-10-02T12:45:09.076Z,86969.50
2023-10-02T12:46:45.797Z,86978.81
2023-10-02T12:48:21.672Z,86972.47
2023-10-02T12:49:57.765Z,86969.47
2023-10-02T12:51:33.660Z,86967.75
2023-10-02T12:53:12.225Z,86966.63
2023-10-02T12:54:50.304Z,86961.34
2023-10-02T12:56:28.958Z,86949.97
2023-10-02T12:58:07.962Z,86955.53
2023-10-02T12:59:45.970Z,86961.63
2023-10-02T13:01:31.906Z,86966.25
2023-10-02T13:03:09.916Z,86955.31
2023-10-02T13:04:45.783Z,86954.78
2023-10-02T13:06:22.998Z,86949.03
2023-10-02T13:07:58.844Z,86942.69
2023-10-02T13:09:35.216Z,86951.06
2023-10-02T13:11:15.267Z,86944.19
2023-10-02T13:12:51.703Z,86939.94
2023-10-02T13:14:27.410Z,86943.72
2023-10-02T13:16:03.519Z,86940.56
2023-10-02T13:17:40.204Z,86938.03
2023-10-02T13:19:17.171Z,86945.53
2023-10-02T13:20:56.742Z,86937.88
2023-10-02T13:22:34.676Z,86936.06
2023-10-02T13:24:17.609Z,86941.84
2023-10-02T13:25:56.029Z,86943.09
2023-10-02T13:27:33.460Z,86935.72
2023-10-02T13:29:09.792Z,86935.94
2023-10-02T13:30:45.545Z,86940.41
2023-10-02T13:32:21.900Z,86941.22
2023-10-02T13:34:02.251Z,86941.31
2023-10-02T13:37:56.079Z,86951.06
2023-10-02T13:39:32.580Z,86938.13
2023-10-02T13:41:14.129Z,86941.88
2023-10-02T13:42:51.380Z,86934.63
2023-10-02T13:44:33.177Z,86937.34
2023-10-02T13:46:11.768Z,86941.31
2023-10-02T13:47:51.385Z,86930.94
2023-10-02T13:49:27.574Z,86941.66
2023-10-02T13:51:05.017Z,86936.03
2023-10-02T13:54:17.203Z,86944.19
2023-10-02T13:55:53.488Z,86939.50
2023-10-02T13:57:29.226Z,86941.25
2023-10-02T13:59:05.856Z,86932.34
2023-10-02T14:00:42.553Z,86936.78
2023-10-02T14:02:19.120Z,86939.75
2023-10-02T14:03:56.478Z,86931.53
2023-10-02T14:05:37.779Z,86935.22
2023-10-02T14:07:14.871Z,86937.38
2023-10-02T14:08:53.902Z,86934.91
2023-10-02T14:10:31.514Z,86935.09
2023-10-02T14:12:07.686Z,86943.34
2023-10-02T14:13:43.673Z,86951.81
2023-10-02T14:15:20.025Z,86940.56
2023-10-02T14:16:55.996Z,86944.81
2023-10-02T14:18:32.081Z,86945.94
2023-10-02T14:20:14.382Z,86941.53
2023-10-02T14:21:50.902Z,86942.69
2023-10-02T14:23:28.090Z,86936.19
2023-10-02T14:25:08.653Z,86934.75
2023-10-02T14:26:44.688Z,86937.00
2023-10-02T14:28:20.937Z,86937.97
2023-10-02T14:29:56.845Z,86938.16
2023-10-02T14:31:33.844Z,86943.19
2023-10-02T14:33:09.898Z,86937.97
2023-10-02T14:34:46.539Z,86937.47
2023-10-02T14:36:22.342Z,86940.13
2023-10-02T14:37:58.703Z,86945.22
2023-10-02T14:39:38.187Z,86937.00
2023-10-02T14:41:14.588Z,86941.06
2023-10-02T14:42:50.549Z,86945.22
2023-10-02T14:44:26.465Z,86944.88
2023-10-02T14:46:02.578Z,86936.09
2023-10-02T14:47:38.909Z,86944.63
2023-10-02T14:49:14.786Z,86950.75
2023-10-02T14:50:50.820Z,86940.91
2023-10-02T14:52:27.252Z,86950.19
2023-10-02T14:54:04.521Z,86952.06
2023-10-02T14:55:51.021Z,86946.56
2023-10-02T14:57:28.399Z,86942.88
2023-10-02T14:59:06.538Z,86943.03
2023-10-02T15:00:43.166Z,86941.53
2023-10-02T15:02:19.429Z,86950.22
2023-10-02T15:03:57.550Z,86944.81
2023-10-02T15:05:33.873Z,86937.81
2023-10-02T15:07:10.176Z,86945.78
2023-10-02T15:08:45.958Z,86946.06
2023-10-02T15:10:25.362Z,86947.31
2023-10-02T15:12:01.092Z,86950.22
2023-10-02T15:13:38.802Z,86950.22
2023-10-02T15:15:17.420Z,86955.59
2023-10-02T15:16:53.547Z,86944.34
2023-10-02T15:18:29.370Z,86952.63
2023-10-02T15:20:06.141Z,86950.06
2023-10-02T15:21:44.845Z,86945.22
2023-10-02T15:23:21.944Z,86951.97
2023-10-02T15:24:58.070Z,86958.56
2023-10-02T15:26:34.819Z,86956.56
2023-10-02T15:28:10.671Z,86953.00
2023-10-02T15:29:47.278Z,86958.06
2023-10-02T15:31:23.060Z,86948.97
2023-10-02T15:33:00.493Z,86958.53
2023-10-02T15:34:36.624Z,86960.13
2023-10-02T15:36:17.846Z,86962.91
2023-10-02T15:37:56.717Z,86963.69
2023-10-02T15:39:33.111Z,86962.88
2023-10-02T15:41:27.215Z,86965.50
2023-10-02T15:43:04.107Z,86960.03
2023-10-02T15:44:44.204Z,86964.09
2023-10-02T15:46:20.573Z,86958.69
2023-10-02T15:47:57.520Z,86968.41
2023-10-02T15:49:33.609Z,86973.91
2023-10-02T15:51:10.106Z,86971.16
2023-10-02T15:52:50.094Z,86974.72
2023-10-02T15:54:27.810Z,86973.97
2023-10-02T15:56:03.742Z,86973.16
2023-10-02T15:57:44.312Z,86976.78
2023-10-02T15:59:20.734Z,86982.25
2023-10-02T16:00:58.840Z,86979.50
2023-10-02T16:02:41.121Z,86971.91
2023-10-02T16:04:19.102Z,86978.06
2023-10-02T16:05:55.422Z,86971.84
2023-10-02T16:07:31.670Z,86974.66
2023-10-02T16:09:07.633Z,86976.09
2023-10-02T16:10:43.415Z,86980.91
2023-10-02T16:12:20.066Z,86975.41
2023-10-02T16:13:58.623Z,86976.75
2023-10-02T16:15:37.232Z,86969.22
2023-10-02T16:17:13.204Z,86974.75
2023-10-02T16:18:49.467Z,86978.09
2023-10-02T16:20:26.151Z,86978.69
2023-10-02T16:22:02.260Z,86980.06
2023-10-02T16:23:42.982Z,86976.03
2023-10-02T16:25:21.370Z,86969.16
2023-10-02T16:26:58.022Z,86972.69
2023-10-02T16:28:35.483Z,86969.88
2023-10-02T16:30:13.640Z,86977.50
2023-10-02T16:31:49.932Z,86973.34
2023-10-02T16:33:26.113Z,86971.97
2023-10-02T16:35:07.089Z,86979.56
2023-10-02T16:36:43.511Z,86966.44
2023-10-02T16:38:21.070Z,86979.56
2023-10-02T16:40:01.878Z,86975.41
2023-10-02T16:41:38.668Z,86980.25
2023-10-02T16:43:14.610Z,86979.50
2023-10-02T16:44:50.893Z,86978.91
2023-10-02T16:46:27.399Z,86981.63
2023-10-02T16:48:04.776Z,86983.00
2023-10-02T16:49:46.739Z,86980.19
2023-10-02T16:51:23.301Z,86976.75
2023-10-02T16:52:59.669Z,86978.03
2023-10-02T16:54:35.803Z,86980.78
2023-10-02T16:56:15.647Z,86987.09
2023-10-02T16:57:52.761Z,86985.66
2023-10-02T16:59:30.983Z,86978.06
2023-10-02T17:01:11.427Z,86988.47
2023-10-02T17:02:47.530Z,86984.19
2023-10-02T17:04:27.861Z,86986.91
2023-10-02T17:06:16.561Z,86985.50
2023-10-02T17:07:52.958Z,86988.28
2023-10-02T17:09:30.514Z,86988.81
2023-10-02T17:11:14.923Z,86995.81
2023-10-02T17:12:53.236Z,86994.19
2023-10-02T17:14:29.186Z,86991.44
2023-10-02T17:16:05.292Z,86988.88
2023-10-02T17:17:46.212Z,86998.25
2023-10-02T17:19:24.369Z,86996.16
2023-10-02T17:21:00.852Z,86996.88
2023-10-02T17:22:40.473Z,86996.81
2023-10-02T17:24:17.005Z,86999.19
2023-10-02T17:25:52.868Z,87001.56
2023-10-02T17:27:28.720Z,87003.97
2023-10-02T17:29:05.160Z,87008.78
2023-10-02T17:30:41.687Z,87001.88
2023-10-02T17:32:17.635Z,87006.59
2023-10-02T17:33:53.674Z,87009.25
2023-10-02T17:35:29.496Z,87007.69
2023-10-02T17:37:06.909Z,87001.13
2023-10-02T17:38:43.790Z,87010.81
2023-10-02T17:40:25.549Z,87004.00
2023-10-02T17:42:01.710Z,87010.41
2023-10-02T17:43:38.147Z,87008.84
2023-10-02T17:45:14.783Z,87017.13
2023-10-02T17:46:51.081Z,87015.78
2023-10-02T17:48:26.948Z,87019.06
2023-10-02T17:50:02.958Z,87016.97
2023-10-02T17:51:40.594Z,87022.84
2023-10-02T17:53:17.131Z,87016.59
2023-10-02T17:54:53.000Z,87023.78
2023-10-02T17:56:29.029Z,87021.22
2023-10-02T17:58:05.324Z,87029.69
2023-10-02T17:59:42.615Z,87035.13
2023-10-02T18:01:18.498Z,87028.72
2023-10-02T18:02:54.577Z,87028.47
2023-10-02T18:04:31.046Z,87041.00
2023-10-02T18:06:07.311Z,87039.72
2023-10-02T18:07:47.301Z,87040.44
2023-10-02T18:09:24.964Z,87044.59
2023-10-02T18:11:01.245Z,87047.69
2023-10-02T18:12:37.763Z,87043.19
2023-10-02T18:14:14.215Z,87051.84
2023-10-02T18:15:50.201Z,87055.53
2023-10-02T18:17:26.580Z,87063.31
2023-10-02T18:19:03.144Z,87071.59
2023-10-02T18:20:45.117Z,87056.69
2023-10-02T18:22:21.120Z,87063.81
2023-10-02T18:23:57.057Z,87064.16
2023-10-02T18:25:33.822Z,87065.69
2023-10-02T18:27:09.858Z,87070.38
2023-10-02T18:28:45.943Z,87069.25
2023-10-02T18:30:23.850Z,87070.88
2023-10-02T18:32:00.775Z,87072.97
2023-10-02T18:33:36.903Z,87068.78
2023-10-02T18:35:12.961Z,87079.22
2023-10-02T18:36:51.366Z,87077.66
2023-10-02T18:38:29.185Z,87084.34
2023-10-02T18:40:10.172Z,87071.47
2023-10-02T18:41:46.371Z,87079.47
2023-10-02T18:43:22.351Z,87073.19
2023-10-02T18:45:01.829Z,87080.84
2023-10-02T18:46:39.405Z,87080.94
2023-10-02T18:48:16.941Z,87085.75
2023-10-02T18:49:53.180Z,87086.34
2023-10-02T18:51:31.636Z,87082.63
2023-10-02T18:53:07.495Z,87083.31
2023-10-02T18:54:43.462Z,87092.25
2023-10-02T18:56:19.424Z,87094.38
2023-10-02T18:57:55.754Z,87093.50
2023-10-02T18:59:31.625Z,87088.38
2023-10-02T19:01:16.891Z,87100.44
2023-10-02T19:02:53.008Z,87097.59
2023-10-02T19:04:30.276Z,87089.38
2023-10-02T19:06:06.900Z,87100.59
2023-10-02T19:07:44.285Z,87111.59
2023-10-02T19:09:22.120Z,87106.41
2023-10-02T19:10:58.447Z,87108.50
2023-10-02T19:12:35.397Z,87109.38
2023-10-02T19:14:11.400Z,87113.09
2023-10-02T19:15:47.586Z,87110.03
2023-10-02T19:17:24.282Z,87112.75
2023-10-02T19:19:00.043Z,87115.19
2023-10-02T19:20:36.087Z,87116.41
2023-10-02T19:22:12.082Z,87119.94
2023-10-02T19:23:49.240Z,87110.94
2023-10-02T19:25:25.043Z,87122.59
2023-10-02T19:27:01.238Z,87119.56
2023-10-02T19:28:37.464Z,87123.31
2023-10-02T19:30:15.197Z,87122.72
2023-10-02T19:31:52.548Z,87121.22
2023-10-02T19:33:31.946Z,87121.63
2023-10-02T19:35:08.191Z,87118.59
2023-10-02T19:36:44.436Z,87125.78
2023-10-02T19:38:22.236Z,87121.00
2023-10-02T19:39:59.600Z,87134.31
2023-10-02T19:41:35.755Z,87134.31
2023-10-02T19:43:12.781Z,87134.31
2023-10-02T19:44:50.838Z,87127.03
2023-10-02T19:46:27.267Z,87127.97
2023-10-02T19:48:03.839Z,87137.00